This is the latest recevied weather packets stored in our database for station/object KJ4W. If no packets are shown the sender has not sent any weather packets the latest 10 day(s).
| Time | Temp. | Humidity | Pressure | Rain* | Wind** | Luminosity | Snow |
|---|---|---|---|---|---|---|---|
| 1788546390 | 34.44° C | 55% | 1014.9 hPa | 0 mm | - | - | - |
| 1788545492 | 33.89° C | 64% | 1015 hPa | 0 mm | - | - | - |
| 1788544591 | 34.44° C | 59% | 1015.1 hPa | 0 mm | - | - | - |
| 1788541891 | 36.11° C | 53% | 1015.4 hPa | 0 mm | - | - | - |
| 1788538292 | 35.56° C | 59% | 1015.7 hPa | 0 mm | - | - | - |
| 1788535591 | 33.33° C | 66% | 1016 hPa | 0 mm | - | - | - |
| 1788534692 | 32.22° C | 71% | 1016 hPa | 0 mm | - | - | - |
| 1788533792 | 31.67° C | 72% | 1015.8 hPa | 0 mm | - | - | - |
| 1788531992 | 30° C | 77% | 1015.7 hPa | 0 mm | - | - | - |
| 1788531093 | 29.44° C | 80% | 1015.6 hPa | 0 mm | - | - | - |
| 1788530191 | 28.89° C | 83% | 1015.6 hPa | 0 mm | - | - | - |
| 1788528391 | 26.11° C | 92% | 1015.6 hPa | 0 mm | - | - | - |
| 1788527491 | 25° C | 97% | 1015.6 hPa | 0 mm | - | - | - |
| 1788526590 | 24.44° C | 98% | 1015.5 hPa | 0 mm | - | - | - |
| 1788524791 | 23.89° C | 99% | 1015.3 hPa | 0 mm | - | - | - |
| 1788523890 | 23.33° C | 98% | 1015.1 hPa | 0 mm | - | - | - |
| 1788522991 | 23.33° C | 98% | 1015 hPa | 0 mm | - | - | - |
| 1788521191 | 23.33° C | 97% | 1014.7 hPa | 0 mm | - | - | - |
| 1788517589 | 23.89° C | 97% | 1014.4 hPa | 0 mm | - | - | - |
| 1788516689 | 23.89° C | 97% | 1014.4 hPa | 0 mm | - | - | - |
| 1788515789 | 23.33° C | 97% | 1014.3 hPa | 0 mm | - | - | - |
| 1788514889 | 23.89° C | 97% | 1014.1 hPa | 0 mm | - | - | - |
| 1788513990 | 23.89° C | 97% | 1014 hPa | 0 mm | - | - | - |
| 1788513091 | 23.89° C | 97% | 1014 hPa | 0 mm | - | - | - |
| 1788512191 | 23.89° C | 97% | 1014 hPa | 0 mm | - | - | - |
* Rain latest hour (hover to see other rain measurements)
** Current wind speed in m/s (hover to see current wind gust speed)